Orkney Springs, Virginia
Current Conditions -  °F | °C
As of 5:35 PM on Monday 24 Nov 2014 (Local Time) from K8W2 Reporting Station
Clear Clear  
Wind Chill: 63°   Ceiling: Unl
Heat Index: 63°   Visibility: 10mi
Dew Point: 50°   Wind: 7mph
Humidity: 62%   Direction: 220°SW
Pressure: 29.66"   Gusts: NA
Location:  38.8°N, 78.81°W
Report Text: K8W2 242235Z AUTO 22006KT 10SM CLR 17/10 A2966 RMK AO1 T01740101
Loading
Personal Weather Stations






























Interactive Weather Map New forecast layout! Learn more

10-Day Weather Forecast

Advertisements
Track Severe Weather on mobile